Hurghada, Egypt
Current Conditions -  °F | °C
As of 6:00 AM on Saturday 20 Dec 2014 (Local Time) from HEGN Reporting Station
Clear Clear  
Wind Chill: 59°   Ceiling: Unl
Heat Index: 59°   Visibility: 6mi
Dew Point: 54°   Wind: 9mph
Humidity: 82%   Direction: 320°NW
Pressure: 30.03"   Gusts: NA
Location:  27.23°N, 33.83°E
Report Text: HEGN 200400Z 32008KT CAVOK 15/12 Q1017 NOSIG
Loading
Personal Weather Stations






























Interactive Weather Map New forecast layout! Learn more

10-Day Weather Forecast

Advertisements
Track Severe Weather on mobile